Terminal Aerodrome Forecast
Issued by NWS Pueblo, CO

Home | Current Version | Previous Version | Text Only | Print | Product List | Glossary On
Versions: 1 2 3 4 5 6 7 8 9 10 11 12 13 14 15 16 17 18 19 20 21 22 23 24 25 26 27
000
FTUS45 KPUB 281728
TAFPUB
TAF
KPUB 281728Z 2818/2918 VRB06KT P6SM FEW200
     FM281900 14008KT P6SM FEW120 SCT200
      TEMPO 2820/2822 19013KT
     FM282200 02014KT P6SM SCT100 BKN150
     FM290500 VRB06KT P6SM SCT120 BKN200
     FM290900 VRB05KT P6SM BKN030=

USA.gov is the U.S. government's official web portal to all federal, state and local government web resources and services.